メインページ
METAR-TAF:

METAR-TAF

空港 :

カラチ, パキスタン

ジンナー国際空港

緯度: 24-54N, 経度: 067-08E, 海抜: 21m

現時点の気象観測

当レポートは49分前の13:55(UTC)に作成
西/南西の風 8kt
気温 30°C
湿度 70%
気圧 1001 hPa
視程: 5000m
高度2000ftの雲は散在している
煙霧

METAR: OPKC 271355Z 24008KT 5000 HZ SCT020 30/24 Q1001 NOSIG

時間: 19:44 (14:44 UTC)

予報

当レポートは4時間44分前の10:00(UTC)に作成
予報は27日の 12時(UTC)から 28日の 18時(UTC)まで有効
西/南西の風 5kt、最大15ktの突風を伴う
視程: 6000m
高度2000ftの雲は散在している
高度2500ftの千切れ雲あり
27日の 22時(UTC)から 28日の 02時(UTC)まで一時的に
西の風 5kt、最大15ktの突風を伴う
視程: 5000m
高度1800ftの雲は散在している
高度2000ftの千切れ雲あり
霧雨
時(UTC)から
西/南西の風 8kt、最大18ktの突風を伴う
視程: 6000m
高度2000ftの雲は散在している
高度3900ftの千切れ雲あり

TAF: OPKC 271000Z 2712/2818 24005G15KT 6000 SCT020 BKN025 TEMPO 2722/2802 26005G15KT 5000 DZ SCT018 BKN020 FM 280600 24008G18KT 6000 SCT020 BKN039

4,000以上の空港の気象観測と天気予報(METAR報とTAF報)

利用可能な観測所は地図上に黄色い丸と赤い丸で示す。

丸の上にカーソルを重ねると観測所名を参照できる。

次にクリックすると気象観測と天気予報を参照できる。

マップの切り替え:黒色「×」印の緑ボタンをクリックして拡大、「-」印の緑ボタンをクリックして縮小、緑色の三角印をクリックして隣りの地図に切り替え


METAR-TAF: